sensor_id;sensor_type;location;lat;lon;timestamp;pressure;altitude;pressure_sealevel;temperature;humidity
49949;BME280;35840;45.982;8.890;2023-02-01T00:01:07;98830.75;;;2.35;57.51
49949;BME280;35840;45.982;8.890;2023-02-01T00:03:33;98835.53;;;2.49;57.32
49949;BME280;35840;45.982;8.890;2023-02-01T00:06:01;98836.47;;;2.47;57.57
49949;BME280;35840;45.982;8.890;2023-02-01T00:08:28;98824.78;;;2.36;57.93
49949;BME280;35840;45.982;8.890;2023-02-01T00:11:06;98833.16;;;2.41;57.85
49949;BME280;35840;45.982;8.890;2023-02-01T00:13:35;98834.91;;;2.38;57.99
49949;BME280;35840;45.982;8.890;2023-02-01T00:16:05;98835.59;;;2.46;57.61
49949;BME280;35840;45.982;8.890;2023-02-01T00:18:32;98842.38;;;2.47;57.25
49949;BME280;35840;45.982;8.890;2023-02-01T00:20:59;98833.91;;;2.47;57.52
49949;BME280;35840;45.982;8.890;2023-02-01T00:23:26;98829.75;;;2.44;57.41
49949;BME280;35840;45.982;8.890;2023-02-01T00:25:53;98829.84;;;2.38;57.29
49949;BME280;35840;45.982;8.890;2023-02-01T00:28:20;98821.59;;;2.27;57.57
49949;BME280;35840;45.982;8.890;2023-02-01T00:30:46;98823.41;;;2.21;57.98
49949;BME280;35840;45.982;8.890;2023-02-01T00:33:13;98829.41;;;2.17;58.06
49949;BME280;35840;45.982;8.890;2023-02-01T00:35:40;98820.81;;;2.24;58.17
49949;BME280;35840;45.982;8.890;2023-02-01T00:38:06;98822.38;;;2.30;57.66
49949;BME280;35840;45.982;8.890;2023-02-01T00:40:33;98825.66;;;2.37;57.89
49949;BME280;35840;45.982;8.890;2023-02-01T00:43:00;98826.00;;;2.17;57.84
49949;BME280;35840;45.982;8.890;2023-02-01T00:45:27;98814.13;;;2.20;57.82
49949;BME280;35840;45.982;8.890;2023-02-01T00:47:53;98826.00;;;2.18;58.30
49949;BME280;35840;45.982;8.890;2023-02-01T00:50:20;98821.13;;;2.08;58.16
49949;BME280;35840;45.982;8.890;2023-02-01T00:52:47;98823.38;;;2.23;58.13
49949;BME280;35840;45.982;8.890;2023-02-01T00:55:14;98821.66;;;2.23;58.55
49949;BME280;35840;45.982;8.890;2023-02-01T00:57:40;98825.31;;;2.10;57.98
49949;BME280;35840;45.982;8.890;2023-02-01T01:00:08;98827.06;;;2.06;58.33
49949;BME280;35840;45.982;8.890;2023-02-01T01:02:35;98820.38;;;2.02;58.99
49949;BME280;35840;45.982;8.890;2023-02-01T01:05:02;98822.84;;;2.05;58.77
49949;BME280;35840;45.982;8.890;2023-02-01T01:07:29;98828.19;;;1.92;58.86
49949;BME280;35840;45.982;8.890;2023-02-01T01:09:55;98822.22;;;1.93;59.21
49949;BME280;35840;45.982;8.890;2023-02-01T01:12:22;98831.38;;;2.01;58.54
49949;BME280;35840;45.982;8.890;2023-02-01T01:14:49;98828.84;;;2.01;59.21
49949;BME280;35840;45.982;8.890;2023-02-01T01:17:16;98816.44;;;1.86;58.83
49949;BME280;35840;45.982;8.890;2023-02-01T01:19:42;98831.66;;;1.86;59.45
49949;BME280;35840;45.982;8.890;2023-02-01T01:22:09;98818.06;;;1.90;59.12
49949;BME280;35840;45.982;8.890;2023-02-01T01:24:36;98819.84;;;1.85;58.63
49949;BME280;35840;45.982;8.890;2023-02-01T01:27:02;98819.06;;;1.80;59.04
49949;BME280;35840;45.982;8.890;2023-02-01T01:29:29;98827.78;;;1.65;59.47
49949;BME280;35840;45.982;8.890;2023-02-01T01:31:56;98820.13;;;1.68;59.39
49949;BME280;35840;45.982;8.890;2023-02-01T01:34:23;98807.25;;;1.80;59.39
49949;BME280;35840;45.982;8.890;2023-02-01T01:36:49;98801.34;;;1.78;59.47
49949;BME280;35840;45.982;8.890;2023-02-01T01:39:16;98804.13;;;1.64;59.78
49949;BME280;35840;45.982;8.890;2023-02-01T01:41:43;98811.41;;;1.84;59.40
49949;BME280;35840;45.982;8.890;2023-02-01T01:47:20;98800.63;;;1.73;59.06
49949;BME280;35840;45.982;8.890;2023-02-01T01:49:47;98809.03;;;1.75;59.36
49949;BME280;35840;45.982;8.890;2023-02-01T01:52:14;98813.16;;;1.81;58.80
49949;BME280;35840;45.982;8.890;2023-02-01T01:54:46;98802.97;;;1.82;58.36
49949;BME280;35840;45.982;8.890;2023-02-01T01:57:18;98810.97;;;1.61;59.21
49949;BME280;35840;45.982;8.890;2023-02-01T01:59:50;98804.19;;;1.61;59.10
49949;BME280;35840;45.982;8.890;2023-02-01T02:02:19;98811.19;;;1.47;59.58
49949;BME280;35840;45.982;8.890;2023-02-01T02:04:46;98810.28;;;1.51;59.85
49949;BME280;35840;45.982;8.890;2023-02-01T02:07:23;98805.88;;;1.61;58.97
49949;BME280;35840;45.982;8.890;2023-02-01T02:09:52;98800.91;;;1.54;59.10
49949;BME280;35840;45.982;8.890;2023-02-01T02:12:27;98811.16;;;1.48;59.65
49949;BME280;35840;45.982;8.890;2023-02-01T02:14:54;98801.97;;;1.41;59.65
49949;BME280;35840;45.982;8.890;2023-02-01T02:20:12;98801.97;;;1.43;60.50
49949;BME280;35840;45.982;8.890;2023-02-01T02:39:23;98789.06;;;1.57;60.61
49949;BME280;35840;45.982;8.890;2023-02-01T02:42:07;98790.88;;;1.48;60.12
49949;BME280;35840;45.982;8.890;2023-02-01T02:45:09;98782.28;;;1.57;59.74
49949;BME280;35840;45.982;8.890;2023-02-01T02:51:18;98786.78;;;1.41;60.10
49949;BME280;35840;45.982;8.890;2023-02-01T02:54:11;98775.06;;;1.35;60.07
49949;BME280;35840;45.982;8.890;2023-02-01T02:56:58;98772.50;;;1.37;59.36
49949;BME280;35840;45.982;8.890;2023-02-01T02:59:47;98782.75;;;1.31;59.93
49949;BME280;35840;45.982;8.890;2023-02-01T03:02:33;98780.97;;;1.34;60.13
49949;BME280;35840;45.982;8.890;2023-02-01T03:05:19;98769.22;;;1.32;60.78
49949;BME280;35840;45.982;8.890;2023-02-01T03:10:35;98774.97;;;1.40;59.53
49949;BME280;35840;45.982;8.890;2023-02-01T03:13:11;98773.59;;;1.22;59.91
49949;BME280;35840;45.982;8.890;2023-02-01T03:15:43;98771.13;;;1.16;60.42
49949;BME280;35840;45.982;8.890;2023-02-01T03:18:16;98771.91;;;1.21;60.16
49949;BME280;35840;45.982;8.890;2023-02-01T03:20:48;98769.47;;;1.13;60.57
49949;BME280;35840;45.982;8.890;2023-02-01T03:23:19;98778.75;;;1.14;60.56
49949;BME280;35840;45.982;8.890;2023-02-01T03:25:49;98778.78;;;1.13;60.14
49949;BME280;35840;45.982;8.890;2023-02-01T03:28:19;98776.09;;;1.24;60.64
49949;BME280;35840;45.982;8.890;2023-02-01T03:30:49;98774.25;;;1.33;59.97
49949;BME280;35840;45.982;8.890;2023-02-01T03:33:21;98776.22;;;1.14;60.29
49949;BME280;35840;45.982;8.890;2023-02-01T03:41:18;98767.03;;;1.09;60.64
49949;BME280;35840;45.982;8.890;2023-02-01T03:44:01;98766.03;;;1.20;60.50
49949;BME280;35840;45.982;8.890;2023-02-01T03:46:35;98757.66;;;1.15;60.58
49949;BME280;35840;45.982;8.890;2023-02-01T03:49:08;98767.03;;;1.09;60.97
49949;BME280;35840;45.982;8.890;2023-02-01T03:51:38;98764.31;;;1.21;60.72
49949;BME280;35840;45.982;8.890;2023-02-01T03:54:11;98761.94;;;1.10;60.29
49949;BME280;35840;45.982;8.890;2023-02-01T03:56:42;98764.69;;;0.96;60.86
49949;BME280;35840;45.982;8.890;2023-02-01T03:59:11;98761.22;;;1.02;60.82
49949;BME280;35840;45.982;8.890;2023-02-01T04:01:39;98754.44;;;1.04;60.47
49949;BME280;35840;45.982;8.890;2023-02-01T04:04:07;98751.09;;;1.02;60.36
49949;BME280;35840;45.982;8.890;2023-02-01T04:06:34;98758.75;;;0.97;60.78
49949;BME280;35840;45.982;8.890;2023-02-01T04:09:02;98768.13;;;0.91;61.68
49949;BME280;35840;45.982;8.890;2023-02-01T04:11:29;98764.56;;;1.06;61.11
49949;BME280;35840;45.982;8.890;2023-02-01T04:13:55;98770.53;;;1.00;61.10
49949;BME280;35840;45.982;8.890;2023-02-01T04:16:22;98764.69;;;0.98;61.31
49949;BME280;35840;45.982;8.890;2023-02-01T04:18:49;98753.03;;;0.86;61.52
49949;BME280;35840;45.982;8.890;2023-02-01T04:21:16;98776.34;;;1.08;61.04
49949;BME280;35840;45.982;8.890;2023-02-01T04:23:42;98773.06;;;1.01;61.45
49949;BME280;35840;45.982;8.890;2023-02-01T04:26:09;98778.03;;;1.09;60.48
49949;BME280;35840;45.982;8.890;2023-02-01T04:28:36;98787.41;;;1.01;61.09
49949;BME280;35840;45.982;8.890;2023-02-01T04:31:02;98788.97;;;1.10;61.06
49949;BME280;35840;45.982;8.890;2023-02-01T04:33:30;98777.22;;;1.06;60.71
49949;BME280;35840;45.982;8.890;2023-02-01T04:35:56;98792.50;;;0.99;60.93
49949;BME280;35840;45.982;8.890;2023-02-01T04:38:23;98781.53;;;0.99;61.54
49949;BME280;35840;45.982;8.890;2023-02-01T04:40:50;98780.66;;;1.01;60.67
49949;BME280;35840;45.982;8.890;2023-02-01T04:43:17;98778.94;;;1.03;60.43
49949;BME280;35840;45.982;8.890;2023-02-01T04:45:48;98780.00;;;0.89;60.83
49949;BME280;35840;45.982;8.890;2023-02-01T04:48:16;98785.09;;;0.85;60.96
49949;BME280;35840;45.982;8.890;2023-02-01T04:50:45;98780.97;;;0.80;61.96
49949;BME280;35840;45.982;8.890;2023-02-01T04:53:17;98779.13;;;0.91;60.98
49949;BME280;35840;45.982;8.890;2023-02-01T04:55:44;98780.72;;;0.97;61.25
49949;BME280;35840;45.982;8.890;2023-02-01T04:58:11;98777.63;;;0.76;61.58
49949;BME280;35840;45.982;8.890;2023-02-01T05:00:37;98774.28;;;0.76;61.69
49949;BME280;35840;45.982;8.890;2023-02-01T05:03:04;98773.44;;;0.75;61.97
49949;BME280;35840;45.982;8.890;2023-02-01T05:05:31;98780.03;;;0.85;61.43
49949;BME280;35840;45.982;8.890;2023-02-01T05:07:58;98775.97;;;0.74;61.31
49949;BME280;35840;45.982;8.890;2023-02-01T05:10:25;98785.25;;;0.75;61.74
49949;BME280;35840;45.982;8.890;2023-02-01T05:12:52;98779.34;;;0.76;62.43
49949;BME280;35840;45.982;8.890;2023-02-01T05:15:37;98774.13;;;0.87;62.15
49949;BME280;35840;45.982;8.890;2023-02-01T05:18:04;98780.88;;;0.84;61.07
49949;BME280;35840;45.982;8.890;2023-02-01T05:20:30;98784.22;;;0.90;61.79
49949;BME280;35840;45.982;8.890;2023-02-01T05:22:57;98787.75;;;0.76;61.53
49949;BME280;35840;45.982;8.890;2023-02-01T05:25:24;98780.22;;;0.72;61.62
49949;BME280;35840;45.982;8.890;2023-02-01T05:27:51;98778.47;;;0.78;62.19
49949;BME280;35840;45.982;8.890;2023-02-01T05:30:19;98774.22;;;0.79;62.10
49949;BME280;35840;45.982;8.890;2023-02-01T05:32:50;98769.06;;;0.85;62.74
49949;BME280;35840;45.982;8.890;2023-02-01T05:35:17;98770.88;;;0.77;61.54
49949;BME280;35840;45.982;8.890;2023-02-01T05:37:43;98769.34;;;0.65;62.36
49949;BME280;35840;45.982;8.890;2023-02-01T05:40:10;98765.13;;;0.67;62.85
49949;BME280;35840;45.982;8.890;2023-02-01T05:42:37;98771.13;;;0.60;63.06
49949;BME280;35840;45.982;8.890;2023-02-01T05:45:04;98772.63;;;0.72;62.47
49949;BME280;35840;45.982;8.890;2023-02-01T05:47:34;98755.13;;;0.56;62.24
49949;BME280;35840;45.982;8.890;2023-02-01T05:50:00;98773.66;;;0.57;62.78
49949;BME280;35840;45.982;8.890;2023-02-01T05:52:27;98772.81;;;0.58;62.61
49949;BME280;35840;45.982;8.890;2023-02-01T05:54:53;98765.28;;;0.53;62.15
49949;BME280;35840;45.982;8.890;2023-02-01T05:57:20;98770.44;;;0.48;63.27
49949;BME280;35840;45.982;8.890;2023-02-01T05:59:47;98767.81;;;0.53;62.11
49949;BME280;35840;45.982;8.890;2023-02-01T06:02:16;98765.38;;;0.48;62.64
49949;BME280;35840;45.982;8.890;2023-02-01T06:04:43;98764.56;;;0.45;62.45
49949;BME280;35840;45.982;8.890;2023-02-01T06:07:10;98765.25;;;0.56;62.06
49949;BME280;35840;45.982;8.890;2023-02-01T06:09:37;98759.34;;;0.57;61.85
49949;BME280;35840;45.982;8.890;2023-02-01T06:12:04;98766.09;;;0.58;62.07
49949;BME280;35840;45.982;8.890;2023-02-01T06:14:31;98767.88;;;0.50;61.50
49949;BME280;35840;45.982;8.890;2023-02-01T06:16:58;98769.69;;;0.40;62.43
49949;BME280;35840;45.982;8.890;2023-02-01T06:19:25;98769.63;;;0.45;62.57
49949;BME280;35840;45.982;8.890;2023-02-01T06:21:51;98751.34;;;0.23;63.08
49949;BME280;35840;45.982;8.890;2023-02-01T06:24:18;98761.44;;;0.26;62.52
49949;BME280;35840;45.982;8.890;2023-02-01T06:26:45;98770.47;;;0.42;62.68
49949;BME280;35840;45.982;8.890;2023-02-01T06:29:12;98768.75;;;0.47;62.12
49949;BME280;35840;45.982;8.890;2023-02-01T06:31:39;98775.47;;;0.48;61.50
49949;BME280;35840;45.982;8.890;2023-02-01T06:34:06;98789.03;;;0.44;62.03
49949;BME280;35840;45.982;8.890;2023-02-01T06:36:33;98787.50;;;0.29;62.54
49949;BME280;35840;45.982;8.890;2023-02-01T06:39:00;98791.72;;;0.30;62.66
49949;BME280;35840;45.982;8.890;2023-02-01T06:41:26;98792.59;;;0.28;63.69
49949;BME280;35840;45.982;8.890;2023-02-01T06:43:55;98795.06;;;0.31;62.91
49949;BME280;35840;45.982;8.890;2023-02-01T06:46:22;98799.38;;;0.24;63.36
49949;BME280;35840;45.982;8.890;2023-02-01T06:48:49;98808.63;;;0.25;63.06
49949;BME280;35840;45.982;8.890;2023-02-01T06:51:25;98815.34;;;0.26;63.71
49949;BME280;35840;45.982;8.890;2023-02-01T06:53:52;98816.19;;;0.25;63.50
49949;BME280;35840;45.982;8.890;2023-02-01T06:56:19;98813.63;;;0.28;63.13
49949;BME280;35840;45.982;8.890;2023-02-01T06:58:47;98816.19;;;0.27;63.59
49949;BME280;35840;45.982;8.890;2023-02-01T07:01:15;98804.47;;;0.20;63.65
49949;BME280;35840;45.982;8.890;2023-02-01T07:03:42;98806.13;;;0.24;63.37
49949;BME280;35840;45.982;8.890;2023-02-01T07:06:09;98809.50;;;0.23;63.62
49949;BME280;35840;45.982;8.890;2023-02-01T07:08:37;98817.91;;;0.25;63.75
49949;BME280;35840;45.982;8.890;2023-02-01T07:11:06;98808.75;;;0.16;64.01
49949;BME280;35840;45.982;8.890;2023-02-01T07:13:33;98818.97;;;0.04;64.07
49949;BME280;35840;45.982;8.890;2023-02-01T07:16:01;98815.47;;;0.19;64.14
49949;BME280;35840;45.982;8.890;2023-02-01T07:18:30;98804.56;;;0.13;63.60
49949;BME280;35840;45.982;8.890;2023-02-01T07:20:57;98819.59;;;0.23;63.85
49949;BME280;35840;45.982;8.890;2023-02-01T07:23:24;98815.34;;;0.26;64.26
49949;BME280;35840;45.982;8.890;2023-02-01T07:25:55;98817.88;;;0.26;64.26
49949;BME280;35840;45.982;8.890;2023-02-01T07:28:23;98824.66;;;0.26;64.15
49949;BME280;35840;45.982;8.890;2023-02-01T07:30:49;98824.53;;;0.35;63.40
49949;BME280;35840;45.982;8.890;2023-02-01T07:33:20;98829.66;;;0.29;64.34
49949;BME280;35840;45.982;8.890;2023-02-01T07:35:50;98833.88;;;0.30;64.47
49949;BME280;35840;45.982;8.890;2023-02-01T07:38:17;98839.63;;;0.43;63.51
49949;BME280;35840;45.982;8.890;2023-02-01T07:40:44;98843.75;;;0.51;62.91
49949;BME280;35840;45.982;8.890;2023-02-01T07:43:11;98836.25;;;0.42;63.96
49949;BME280;35840;45.982;8.890;2023-02-01T07:45:37;98836.19;;;0.45;63.14
49949;BME280;35840;45.982;8.890;2023-02-01T07:48:04;98839.69;;;0.37;63.83
49949;BME280;35840;45.982;8.890;2023-02-01T07:50:31;98838.94;;;0.30;64.38
49949;BME280;35840;45.982;8.890;2023-02-01T07:52:59;98836.38;;;0.31;65.02
49949;BME280;35840;45.982;8.890;2023-02-01T07:55:27;98831.16;;;0.45;64.84
49949;BME280;35840;45.982;8.890;2023-02-01T07:57:57;98823.53;;;0.48;63.79
49949;BME280;35840;45.982;8.890;2023-02-01T08:00:24;98835.31;;;0.49;64.46
49949;BME280;35840;45.982;8.890;2023-02-01T08:03:09;98833.63;;;0.51;64.77
49949;BME280;35840;45.982;8.890;2023-02-01T08:05:36;98841.09;;;0.59;64.36
49949;BME280;35840;45.982;8.890;2023-02-01T08:08:03;98852.88;;;0.62;65.08
49949;BME280;35840;45.982;8.890;2023-02-01T08:10:30;98845.31;;;0.60;65.34
49949;BME280;35840;45.982;8.890;2023-02-01T08:13:01;98854.44;;;0.75;65.62
49949;BME280;35840;45.982;8.890;2023-02-01T08:15:29;98851.78;;;0.83;65.39
49949;BME280;35840;45.982;8.890;2023-02-01T08:17:56;98851.53;;;1.01;65.89
49949;BME280;35840;45.982;8.890;2023-02-01T08:20:25;98850.50;;;1.16;67.20
49949;BME280;35840;45.982;8.890;2023-02-01T08:22:55;98854.63;;;1.22;67.04
49949;BME280;35840;45.982;8.890;2023-02-01T08:25:22;98848.47;;;1.37;66.59
49949;BME280;35840;45.982;8.890;2023-02-01T08:27:50;98850.91;;;1.43;67.51
49949;BME280;35840;45.982;8.890;2023-02-01T08:30:17;98842.44;;;1.46;67.02
49949;BME280;35840;45.982;8.890;2023-02-01T08:32:43;98841.50;;;1.51;66.97
49949;BME280;35840;45.982;8.890;2023-02-01T08:35:10;98832.97;;;1.57;66.34
49949;BME280;35840;45.982;8.890;2023-02-01T08:37:37;98834.50;;;1.66;65.39
49949;BME280;35840;45.982;8.890;2023-02-01T08:40:04;98838.56;;;1.78;65.04
49949;BME280;35840;45.982;8.890;2023-02-01T08:42:31;98840.91;;;1.87;64.65
49949;BME280;35840;45.982;8.890;2023-02-01T08:45:18;98839.25;;;1.86;64.40
49949;BME280;35840;45.982;8.890;2023-02-01T08:47:46;98840.81;;;1.93;64.65
49949;BME280;35840;45.982;8.890;2023-02-01T08:50:16;98831.66;;;1.86;64.07
49949;BME280;35840;45.982;8.890;2023-02-01T08:52:43;98841.59;;;1.97;63.57
49949;BME280;35840;45.982;8.890;2023-02-01T08:55:10;98837.34;;;1.99;64.33
49949;BME280;35840;45.982;8.890;2023-02-01T08:57:37;98838.13;;;2.02;63.40
49949;BME280;35840;45.982;8.890;2023-02-01T09:00:06;98839.75;;;2.05;62.54
49949;BME280;35840;45.982;8.890;2023-02-01T09:02:34;98827.94;;;2.04;62.15
49949;BME280;35840;45.982;8.890;2023-02-01T09:05:00;98840.50;;;2.12;63.58
49949;BME280;35840;45.982;8.890;2023-02-01T09:07:27;98846.22;;;2.23;61.73
49949;BME280;35840;45.982;8.890;2023-02-01T09:09:54;98846.94;;;2.30;61.97
49949;BME280;35840;45.982;8.890;2023-02-01T09:12:22;98849.41;;;2.33;61.99
49949;BME280;35840;45.982;8.890;2023-02-01T09:14:49;98845.88;;;2.40;61.17
49949;BME280;35840;45.982;8.890;2023-02-01T09:17:16;98850.97;;;2.40;61.58
49949;BME280;35840;45.982;8.890;2023-02-01T09:19:42;98847.47;;;2.46;61.99
49949;BME280;35840;45.982;8.890;2023-02-01T09:22:09;98846.44;;;2.54;62.20
49949;BME280;35840;45.982;8.890;2023-02-01T09:24:36;98847.19;;;2.60;62.04
49949;BME280;35840;45.982;8.890;2023-02-01T09:27:03;98850.34;;;2.71;61.45
49949;BME280;35840;45.982;8.890;2023-02-01T09:29:30;98841.13;;;2.67;60.56
49949;BME280;35840;45.982;8.890;2023-02-01T09:31:56;98840.84;;;2.79;58.95
49949;BME280;35840;45.982;8.890;2023-02-01T09:34:30;98839.13;;;2.81;59.47
49949;BME280;35840;45.982;8.890;2023-02-01T09:36:57;98843.34;;;2.81;59.79
49949;BME280;35840;45.982;8.890;2023-02-01T09:39:24;98836.13;;;3.03;58.24
49949;BME280;35840;45.982;8.890;2023-02-01T09:44:54;98810.25;;;3.23;58.82
49949;BME280;35840;45.982;8.890;2023-02-01T09:47:26;98833.78;;;3.31;57.86
49949;BME280;35840;45.982;8.890;2023-02-01T09:50:08;98845.59;;;3.34;58.08
49949;BME280;35840;45.982;8.890;2023-02-01T09:52:44;98847.19;;;3.38;56.55
49949;BME280;35840;45.982;8.890;2023-02-01T09:55:19;98839.50;;;3.41;55.44
49949;BME280;35840;45.982;8.890;2023-02-01T09:58:00;98844.97;;;3.60;56.66
49949;BME280;35840;45.982;8.890;2023-02-01T10:00:34;98842.56;;;3.88;56.92
49949;BME280;35840;45.982;8.890;2023-02-01T10:03:02;98841.44;;;4.00;54.07
49949;BME280;35840;45.982;8.890;2023-02-01T10:05:49;98839.81;;;3.97;54.49
49949;BME280;35840;45.982;8.890;2023-02-01T10:11:24;98847.50;;;4.27;56.44
49949;BME280;35840;45.982;8.890;2023-02-01T10:14:30;98848.97;;;4.36;58.40
49949;BME280;35840;45.982;8.890;2023-02-01T10:17:12;98842.88;;;4.42;56.51
49949;BME280;35840;45.982;8.890;2023-02-01T10:25:26;98844.03;;;4.61;57.20
49949;BME280;35840;45.982;8.890;2023-02-01T10:27:56;98853.97;;;4.69;56.69
49949;BME280;35840;45.982;8.890;2023-02-01T10:30:47;98854.34;;;4.57;56.54
49949;BME280;35840;45.982;8.890;2023-02-01T10:33:23;98840.44;;;4.69;56.45
49949;BME280;35840;45.982;8.890;2023-02-01T10:35:59;98838.19;;;4.88;56.68
49949;BME280;35840;45.982;8.890;2023-02-01T10:38:30;98850.69;;;4.95;57.10
49949;BME280;35840;45.982;8.890;2023-02-01T10:41:10;98838.56;;;5.04;57.82
49949;BME280;35840;45.982;8.890;2023-02-01T10:43:38;98829.56;;;5.20;55.15
49949;BME280;35840;45.982;8.890;2023-02-01T10:46:07;98824.38;;;5.23;53.74
49949;BME280;35840;45.982;8.890;2023-02-01T10:48:34;98826.09;;;5.23;53.62
49949;BME280;35840;45.982;8.890;2023-02-01T10:51:12;98820.66;;;5.33;52.03
49949;BME280;35840;45.982;8.890;2023-02-01T10:53:50;98814.09;;;5.53;52.31
49949;BME280;35840;45.982;8.890;2023-02-01T10:56:25;98815.44;;;5.63;52.33
49949;BME280;35840;45.982;8.890;2023-02-01T10:59:03;98811.91;;;5.67;51.67
49949;BME280;35840;45.982;8.890;2023-02-01T11:01:41;98801.72;;;5.67;50.95
49949;BME280;35840;45.982;8.890;2023-02-01T11:04:13;98796.22;;;5.80;50.85
49949;BME280;35840;45.982;8.890;2023-02-01T11:06:43;98795.94;;;5.88;51.08
49949;BME280;35840;45.982;8.890;2023-02-01T11:14:19;98783.06;;;6.16;51.75
49949;BME280;35840;45.982;8.890;2023-02-01T11:16:53;98776.53;;;6.32;52.96
49949;BME280;35840;45.982;8.890;2023-02-01T11:19:20;98776.06;;;6.45;51.99
49949;BME280;35840;45.982;8.890;2023-02-01T11:21:55;98775.56;;;6.59;51.58
49949;BME280;35840;45.982;8.890;2023-02-01T11:24:33;98776.41;;;6.59;51.35
49949;BME280;35840;45.982;8.890;2023-02-01T11:27:04;98763.59;;;6.37;51.56
49949;BME280;35840;45.982;8.890;2023-02-01T11:29:38;98752.03;;;6.50;51.03
49949;BME280;35840;45.982;8.890;2023-02-01T11:32:08;98751.03;;;6.54;51.51
49949;BME280;35840;45.982;8.890;2023-02-01T11:34:41;98751.09;;;6.53;52.00
49949;BME280;35840;45.982;8.890;2023-02-01T11:37:23;98735.31;;;6.65;52.91
49949;BME280;35840;45.982;8.890;2023-02-01T11:39:56;98747.81;;;6.71;50.09
49949;BME280;35840;45.982;8.890;2023-02-01T11:42:24;98740.03;;;6.75;49.80
49949;BME280;35840;45.982;8.890;2023-02-01T11:45:18;98728.34;;;6.69;51.61
49949;BME280;35840;45.982;8.890;2023-02-01T11:47:45;98734.72;;;6.81;52.15
49949;BME280;35840;45.982;8.890;2023-02-01T11:50:22;98741.38;;;6.85;50.22
49949;BME280;35840;45.982;8.890;2023-02-01T11:53:21;98736.75;;;6.93;48.45
49949;BME280;35840;45.982;8.890;2023-02-01T12:04:02;98712.84;;;7.37;47.64
49949;BME280;35840;45.982;8.890;2023-02-01T12:06:48;98707.78;;;7.35;48.91
49949;BME280;35840;45.982;8.890;2023-02-01T12:12:02;98704.41;;;7.35;48.29
49949;BME280;35840;45.982;8.890;2023-02-01T12:23:14;98689.91;;;7.56;50.49
49949;BME280;35840;45.982;8.890;2023-02-01T12:28:57;98690.03;;;8.12;44.08
49949;BME280;35840;45.982;8.890;2023-02-01T12:42:54;98675.41;;;8.33;44.14
49949;BME280;35840;45.982;8.890;2023-02-01T12:45:38;98671.00;;;8.17;44.49
49949;BME280;35840;45.982;8.890;2023-02-01T12:50:50;98665.44;;;8.07;43.28
49949;BME280;35840;45.982;8.890;2023-02-01T12:53:29;98657.63;;;8.10;43.82
49949;BME280;35840;45.982;8.890;2023-02-01T12:56:02;98654.44;;;8.24;43.58
49949;BME280;35840;45.982;8.890;2023-02-01T12:58:51;98640.97;;;8.57;42.92
49949;BME280;35840;45.982;8.890;2023-02-01T13:01:41;98646.81;;;8.78;41.53
49949;BME280;35840;45.982;8.890;2023-02-01T13:04:26;98636.03;;;8.72;41.51
49949;BME280;35840;45.982;8.890;2023-02-01T13:07:24;98629.94;;;8.92;42.67
49949;BME280;35840;45.982;8.890;2023-02-01T13:12:36;98614.75;;;9.56;41.14
49949;BME280;35840;45.982;8.890;2023-02-01T13:15:39;98617.53;;;9.51;42.85
49949;BME280;35840;45.982;8.890;2023-02-01T13:18:05;98616.44;;;9.39;41.33
49949;BME280;35840;45.982;8.890;2023-02-01T13:20:52;98607.69;;;9.43;40.46
49949;BME280;35840;45.982;8.890;2023-02-01T13:23:31;98605.03;;;9.45;40.55
49949;BME280;35840;45.982;8.890;2023-02-01T13:25:59;98610.41;;;9.40;39.47
49949;BME280;35840;45.982;8.890;2023-02-01T13:28:30;98616.31;;;9.25;40.01
49949;BME280;35840;45.982;8.890;2023-02-01T13:36:33;98610.88;;;8.43;46.19
49949;BME280;35840;45.982;8.890;2023-02-01T13:41:54;98603.59;;;8.88;45.33
49949;BME280;35840;45.982;8.890;2023-02-01T13:44:30;98584.25;;;9.50;41.71
49949;BME280;35840;45.982;8.890;2023-02-01T13:47:02;98583.56;;;9.95;39.94
49949;BME280;35840;45.982;8.890;2023-02-01T13:49:38;98584.13;;;10.16;41.20
49949;BME280;35840;45.982;8.890;2023-02-01T13:52:27;98580.69;;;10.48;39.33
49949;BME280;35840;45.982;8.890;2023-02-01T13:57:49;98593.78;;;10.59;38.95
49949;BME280;35840;45.982;8.890;2023-02-01T14:00:34;98580.69;;;10.48;37.82
49949;BME280;35840;45.982;8.890;2023-02-01T14:13:38;98587.50;;;10.49;37.10
49949;BME280;35840;45.982;8.890;2023-02-01T14:24:00;98579.25;;;11.46;27.67
49949;BME280;35840;45.982;8.890;2023-02-01T14:26:44;98590.69;;;12.13;22.65
49949;BME280;35840;45.982;8.890;2023-02-01T14:55:42;98583.25;;;13.40;20.73
49949;BME280;35840;45.982;8.890;2023-02-01T15:06:36;98589.03;;;13.43;18.27
49949;BME280;35840;45.982;8.890;2023-02-01T15:14:46;98590.69;;;13.32;19.49
49949;BME280;35840;45.982;8.890;2023-02-01T15:17:23;98596.47;;;13.35;19.79
49949;BME280;35840;45.982;8.890;2023-02-01T15:19:57;98603.19;;;13.38;19.22
49949;BME280;35840;45.982;8.890;2023-02-01T15:22:26;98597.09;;;13.39;19.94
49949;BME280;35840;45.982;8.890;2023-02-01T15:24:59;98601.81;;;13.32;18.72
49949;BME280;35840;45.982;8.890;2023-02-01T15:27:28;98597.09;;;13.26;19.84
49949;BME280;35840;45.982;8.890;2023-02-01T15:30:07;98604.63;;;13.16;20.43
49949;BME280;35840;45.982;8.890;2023-02-01T15:32:37;98602.97;;;13.15;19.32
49949;BME280;35840;45.982;8.890;2023-02-01T15:35:05;98595.94;;;12.91;20.52
49949;BME280;35840;45.982;8.890;2023-02-01T15:37:52;98600.78;;;12.83;19.92
49949;BME280;35840;45.982;8.890;2023-02-01T15:40:21;98593.94;;;12.69;19.77
49949;BME280;35840;45.982;8.890;2023-02-01T15:42:53;98593.75;;;12.32;21.51
49949;BME280;35840;45.982;8.890;2023-02-01T15:45:24;98599.91;;;12.02;21.52
49949;BME280;35840;45.982;8.890;2023-02-01T15:47:54;98602.75;;;11.83;22.07
49949;BME280;35840;45.982;8.890;2023-02-01T15:50:21;98605.44;;;11.82;21.66
49949;BME280;35840;45.982;8.890;2023-02-01T15:52:53;98608.66;;;11.85;20.89
49949;BME280;35840;45.982;8.890;2023-02-01T15:57:58;98618.06;;;11.43;21.82
49949;BME280;35840;45.982;8.890;2023-02-01T16:00:29;98625.50;;;11.19;23.09
49949;BME280;35840;45.982;8.890;2023-02-01T16:03:04;98630.63;;;11.05;23.67
49949;BME280;35840;45.982;8.890;2023-02-01T16:05:35;98631.50;;;10.89;23.70
49949;BME280;35840;45.982;8.890;2023-02-01T16:08:16;98628.41;;;10.68;24.33
49949;BME280;35840;45.982;8.890;2023-02-01T16:10:45;98631.56;;;10.57;24.52
49949;BME280;35840;45.982;8.890;2023-02-01T16:13:14;98632.78;;;10.36;25.50